Aeroporto :
LOGIN :

Iscrizione | Disclaimer

   EN    FR    IT 

 










Sommario :    VFR   VFR Marginale   IFR   IFR Intensivo   IFR Molto Intensivo
Visibilità : 
Base nubi : 
>= 8 km
>= 3000ft
5 / 8 km
1000 / 3000 ft
1500m / 5 km
500 / 1000 ft
800 / 1500m
200 / 500 ft
< 800m
< 200 ft
Simboli :   Temporali  Nebbia  Neve Forte  Precipitazioni Forti  Vento > 20 kt
SIGMETs :   Varie  Temporali  Ghiacco  Turbolenza  Onda orograficha  Ceneri Vulcaniche






- Altitudine del aeroporto : 17 ft
- Codice IATA : MPL


LFMT - Montpellier Méditerranée

ULTIMO METAR :
  • 200430Z AUTO 33004KT CAVOK 04/02 Q1024 NOSIG

METARs OBSOLETI :
  • 200400Z AUTO 31005KT CAVOK 05/02 Q1025 NOSIG
  • 200330Z AUTO 32005KT CAVOK 06/04 Q1025 NOSIG
  • 200300Z AUTO 31007KT CAVOK 06/03 Q1025 NOSIG
  • 200230Z AUTO 30006KT CAVOK 06/04 Q1026 NOSIG
  • 200200Z AUTO 32005KT CAVOK 06/03 Q1026 NOSIG

TAF TAF LFMT
Valido dal 20 a 03 ore il 21 a 03 ore UTC


200200Z 2003/2103 31007KT CAVOK
TEMPO 2007/2013 VRB03KT
BECMG 2013/2014 16010KT
BECMG 2015/2017 22010KT
BECMG 2021/2023 34010KT
ATIS : +33 4 67 13 11 70



MetMap, La meteo Aeronautica in un colpo d'occhio ! - Copyright ORBIFLY Dicembre 2007 - Disclaimer

ORBIFLY MET'MAP TEAM :

Programmazione e sviluppo : Alexandra Zaïnal
Concezione : Baudouin d'Aumeries
Aiuto per la programmazione : Marc-Olivier Méhu
Supporto tecnico e logistico : Manuel Goepfert
Aiuto per la traduzione : Arnaldo La Scala

Contatto : metmap@orbifly.com




FONTI E CREDITI :

   NOAA